Time;durP1;ratioP1;P1;durP2;ratioP2;P2;SDS_P1;SDS_P2;PMS_P1;PMS_P2;Temp;Humidity;BMP_temperature;BMP_pressure;BME280_temperature;BME280_humidity;BME280_pressure;Samples;Min_cycle;Max_cycle;Signal;HPM_P1;HPM_P2
2024/01/25 00:00:27;;;;;;;0.20;0.20;;;;;;;8.84;51.04;101646.50;5012719;28;20033;-90
2024/01/25 00:02:53;;;;;;;0.20;0.20;;;;;;;8.73;51.06;101645.94;5014212;28;20030;-88
2024/01/25 00:05:18;;;;;;;0.20;0.20;;;;;;;8.60;51.07;101637.66;5033846;28;20523;-89
2024/01/25 00:07:50;;;;;;;0.20;0.20;;;;;;;8.63;50.76;101610.94;4983067;28;20037;-88
2024/01/25 00:10:19;;;;;;;0.20;0.20;;;;;;;8.62;50.72;101623.00;4999726;28;20026;-89
2024/01/25 00:12:44;;;;;;;0.20;0.20;;;;;;;8.62;50.96;101615.25;4999987;28;20048;-89
2024/01/25 00:15:12;;;;;;;0.20;0.20;;;;;;;8.71;51.09;101613.34;4999868;28;20594;-87
2024/01/25 00:17:38;;;;;;;0.20;0.20;;;;;;;8.62;52.01;101579.13;5016031;28;20112;-91
2024/01/25 00:20:05;;;;;;;0.20;0.20;;;;;;;8.51;52.47;101585.47;4983139;28;20549;-88
2024/01/25 00:22:30;;;;;;;0.20;0.20;;;;;;;8.36;53.28;101565.19;4999290;28;20040;-89
2024/01/25 00:24:56;;;;;;;0.20;0.20;;;;;;;8.42;52.74;101554.75;4999507;28;20108;-88
2024/01/25 00:27:21;;;;;;;0.20;0.20;;;;;;;8.39;53.70;101565.16;4999244;28;20025;-90
2024/01/25 00:29:47;;;;;;;0.20;0.20;;;;;;;8.54;53.69;101595.69;5015672;28;20033;-89
2024/01/25 00:32:12;;;;;;;0.20;0.20;;;;;;;8.47;52.27;101599.34;4999209;28;20024;-89
2024/01/25 00:34:38;;;;;;;0.20;0.20;;;;;;;8.50;53.81;101596.66;5015322;28;20039;-89
2024/01/25 00:37:04;;;;;;;0.20;0.20;;;;;;;8.33;54.21;101597.88;5014943;28;20056;-90
2024/01/25 00:39:30;;;;;;;0.20;0.20;;;;;;;8.09;55.08;101587.31;4999025;28;20039;-89
2024/01/25 00:42:07;;;;;;;0.20;0.20;;;;;;;8.12;55.95;101619.00;5015290;28;20431;-90
2024/01/25 00:44:33;;;;;;;0.20;0.20;;;;;;;8.01;55.52;101615.84;4983895;28;20124;-90
2024/01/25 00:46:59;;;;;;;0.20;0.20;;;;;;;8.05;55.96;101627.75;4982777;28;20021;-90
2024/01/25 00:49:25;;;;;;;0.20;0.20;;;;;;;7.97;56.23;101629.69;4982581;28;20068;-91
2024/01/25 00:51:51;;;;;;;0.20;0.20;;;;;;;7.84;56.81;101620.50;4998464;28;20531;-88
2024/01/25 00:54:17;;;;;;;0.20;0.20;;;;;;;7.84;56.90;101612.78;4998824;28;20029;-90
2024/01/25 00:56:42;;;;;;;0.20;0.20;;;;;;;8.07;56.80;101620.03;4998966;28;20030;-88
2024/01/25 00:59:08;;;;;;;0.20;0.20;;;;;;;8.03;56.95;101602.03;4998688;28;20503;-90
2024/01/25 01:01:34;;;;;;;0.10;0.10;;;;;;;8.10;57.33;101605.31;5015123;28;20029;-88
2024/01/25 01:04:00;;;;;;;0.20;0.20;;;;;;;7.88;57.81;101584.34;5014915;28;20115;-88
2024/01/25 01:06:26;;;;;;;0.20;0.20;;;;;;;8.17;56.54;101585.41;5032170;28;20029;-89
2024/01/25 01:08:52;;;;;;;0.20;0.20;;;;;;;8.37;56.20;101582.38;5014865;28;20033;-89
2024/01/25 01:11:18;;;;;;;0.20;0.20;;;;;;;8.45;55.95;101588.19;4998597;28;20117;-89
2024/01/25 01:13:44;;;;;;;0.20;0.20;;;;;;;8.51;56.08;101581.16;4997885;28;20136;-88
2024/01/25 01:16:09;;;;;;;0.20;0.20;;;;;;;8.78;56.20;101592.50;4982037;28;20145;-90
2024/01/25 01:18:35;;;;;;;0.20;0.20;;;;;;;8.93;56.05;101582.66;5014772;28;20104;-89
2024/01/25 01:21:00;;;;;;;0.20;0.20;;;;;;;9.01;55.72;101570.38;5014395;28;20408;-89
2024/01/25 01:23:26;;;;;;;0.10;0.10;;;;;;;9.25;54.90;101580.06;4998101;28;20522;-88
2024/01/25 01:25:51;;;;;;;0.20;0.20;;;;;;;9.43;54.31;101560.56;4998472;28;20040;-89
2024/01/25 01:28:17;;;;;;;0.20;0.20;;;;;;;9.56;54.57;101568.84;4998082;28;20029;-89
2024/01/25 01:30:43;;;;;;;0.20;0.20;;;;;;;9.76;54.07;101557.00;4998432;28;20033;-89
2024/01/25 01:33:09;;;;;;;0.20;0.20;;;;;;;9.86;54.63;101547.22;5014561;28;20025;-90
2024/01/25 01:35:34;;;;;;;0.20;0.20;;;;;;;9.87;54.22;101538.56;5014123;28;20026;-88
2024/01/25 01:38:00;;;;;;;0.20;0.20;;;;;;;9.89;54.06;101549.69;5032049;28;20033;-88
2024/01/25 01:40:25;;;;;;;0.20;0.20;;;;;;;9.89;54.13;101544.53;4997934;28;20026;-88
2024/01/25 01:42:51;;;;;;;0.20;0.20;;;;;;;9.88;54.35;101542.00;4997936;28;20423;-88
2024/01/25 01:45:16;;;;;;;0.20;0.20;;;;;;;9.90;54.46;101538.47;5031208;28;20483;-88
2024/01/25 01:47:42;;;;;;;0.20;0.20;;;;;;;10.11;54.13;101556.78;4997767;28;20510;-89
2024/01/25 01:50:09;;;;;;;0.20;0.20;;;;;;;10.03;53.53;101550.13;4997180;28;20054;-88
2024/01/25 01:52:34;;;;;;;0.20;0.20;;;;;;;10.02;53.94;101556.16;4997893;28;20086;-90
2024/01/25 01:55:00;;;;;;;0.20;0.20;;;;;;;10.06;54.02;101538.84;5013978;28;20030;-90
2024/01/25 01:57:25;;;;;;;0.20;0.20;;;;;;;10.05;54.13;101535.41;4997457;28;20029;-89
2024/01/25 01:59:51;;;;;;;0.20;0.20;;;;;;;10.00;54.32;101539.88;4997565;28;20028;-89
2024/01/25 02:02:17;;;;;;;0.20;0.20;;;;;;;10.02;54.13;101548.41;5013816;28;20498;-89
2024/01/25 02:04:43;;;;;;;0.20;0.20;;;;;;;10.11;53.98;101562.78;5013497;28;20060;-89
2024/01/25 02:07:09;;;;;;;0.20;0.20;;;;;;;10.09;54.90;101569.75;5031383;28;20032;-89
2024/01/25 02:09:34;;;;;;;0.20;0.20;;;;;;;10.02;54.31;101543.25;4981086;28;20503;-87
2024/01/25 02:12:03;;;;;;;0.20;0.20;;;;;;;10.14;54.37;101561.88;5013432;28;20029;-89
2024/01/25 02:14:30;;;;;;;0.20;0.20;;;;;;;10.16;54.58;101566.09;4997259;28;20060;-87
2024/01/25 02:16:56;;;;;;;0.20;0.20;;;;;;;10.06;54.22;101531.94;4997077;28;20033;-88
2024/01/25 02:19:21;;;;;;;0.20;0.20;;;;;;;10.28;53.94;101555.38;4997205;28;20032;-88
2024/01/25 02:21:48;;;;;;;0.20;0.20;;;;;;;10.26;54.19;101553.75;4997519;28;20021;-88
2024/01/25 02:24:13;;;;;;;0.20;0.20;;;;;;;10.10;54.67;101553.34;4997169;28;20030;-90
2024/01/25 02:26:39;;;;;;;0.20;0.20;;;;;;;10.27;54.42;101555.41;4997020;28;20087;-88
2024/01/25 02:29:05;;;;;;;0.20;0.20;;;;;;;10.24;54.09;101550.38;5013297;28;20026;-88
2024/01/25 02:31:31;;;;;;;0.20;0.20;;;;;;;10.25;54.10;101559.81;4996856;28;20422;-90
2024/01/25 02:33:56;;;;;;;0.20;0.20;;;;;;;10.15;54.73;101563.56;4997117;28;20029;-89
2024/01/25 02:36:22;;;;;;;0.20;0.20;;;;;;;10.28;54.63;101564.88;5013292;28;20045;-88
2024/01/25 02:38:48;;;;;;;0.20;0.20;;;;;;;10.30;54.53;101568.25;4996660;28;20052;-91
2024/01/25 02:41:14;;;;;;;0.20;0.20;;;;;;;10.23;54.37;101553.84;4996972;28;20064;-88
2024/01/25 02:43:39;;;;;;;0.20;0.20;;;;;;;10.23;54.17;101557.28;5030475;28;20025;-90
2024/01/25 02:46:05;;;;;;;0.20;0.20;;;;;;;10.33;53.84;101571.59;5030463;28;20084;-89
2024/01/25 02:48:31;;;;;;;0.20;0.20;;;;;;;10.33;53.81;101578.50;5012921;28;20041;-87
2024/01/25 02:50:56;;;;;;;0.20;0.20;;;;;;;10.43;53.50;101585.06;4996694;28;20044;-87
2024/01/25 02:53:22;;;;;;;0.20;0.20;;;;;;;10.46;53.17;101584.97;4997009;28;20025;-88
2024/01/25 02:55:47;;;;;;;0.20;0.20;;;;;;;10.52;52.84;101586.47;5013135;28;20041;-88
2024/01/25 02:58:13;;;;;;;0.20;0.20;;;;;;;10.54;52.75;101582.97;5012782;28;20108;-89
2024/01/25 03:00:39;;;;;;;0.20;0.20;;;;;;;10.47;52.98;101589.22;4996858;28;20044;-90
2024/01/25 03:03:04;;;;;;;0.20;0.20;;;;;;;10.50;52.80;101586.53;4996831;28;20033;-88
2024/01/25 03:05:30;;;;;;;0.20;0.20;;;;;;;10.63;52.42;101587.84;4996951;28;20022;-91
2024/01/25 03:07:55;;;;;;;0.20;0.20;;;;;;;10.58;52.33;101568.19;5013353;28;20044;-90
2024/01/25 03:10:21;;;;;;;0.20;0.20;;;;;;;10.56;52.46;101576.00;4996530;28;20040;-89
2024/01/25 03:12:46;;;;;;;0.20;0.20;;;;;;;10.48;52.40;101582.31;4996432;28;20049;-88
2024/01/25 03:15:12;;;;;;;0.20;0.20;;;;;;;10.42;52.50;101583.38;5030192;28;20029;-89
2024/01/25 03:17:38;;;;;;;0.20;0.20;;;;;;;10.52;53.08;101582.19;5012882;28;20025;-88
2024/01/25 03:20:03;;;;;;;0.20;0.20;;;;;;;10.53;52.48;101576.09;5012647;28;20029;-89
2024/01/25 03:22:29;;;;;;;0.20;0.20;;;;;;;10.51;52.61;101575.28;5013003;28;20034;-90
2024/01/25 03:24:54;;;;;;;0.20;0.20;;;;;;;10.37;52.46;101553.38;4996615;28;20554;-89
2024/01/25 03:27:20;;;;;;;0.20;0.20;;;;;;;10.49;52.65;101578.84;5013135;28;20507;-90
2024/01/25 03:29:46;;;;;;;0.20;0.20;;;;;;;10.50;52.46;101591.72;5012588;28;20407;-89
2024/01/25 03:32:12;;;;;;;0.20;0.20;;;;;;;10.31;52.84;101606.16;5012612;28;20029;-88
2024/01/25 03:34:37;;;;;;;0.20;0.20;;;;;;;10.38;52.75;101610.22;4996412;28;20384;-88
2024/01/25 03:37:03;;;;;;;0.20;0.20;;;;;;;10.19;53.04;101580.66;5012925;28;20028;-89
2024/01/25 03:39:28;;;;;;;0.20;0.20;;;;;;;9.99;53.50;101584.72;5034147;28;20033;-89
2024/01/25 03:41:54;;;;;;;0.20;0.20;;;;;;;10.16;53.80;101614.38;5016535;28;20021;-90
2024/01/25 03:44:20;;;;;;;0.20;0.20;;;;;;;9.93;54.25;101592.69;4999610;28;20037;-89
2024/01/25 03:46:45;;;;;;;0.20;0.20;;;;;;;10.02;54.49;101615.63;5016467;28;20414;-89
2024/01/25 03:49:11;;;;;;;0.20;0.20;;;;;;;9.82;54.76;101612.81;5000202;28;20188;-88
2024/01/25 03:51:37;;;;;;;0.20;0.20;;;;;;;9.77;55.07;101614.69;5016287;28;20048;-88
2024/01/25 03:54:02;;;;;;;0.10;0.10;;;;;;;9.69;55.55;101603.75;5000061;28;20025;-89
2024/01/25 03:56:28;;;;;;;0.20;0.20;;;;;;;9.51;56.28;101604.28;5000320;28;20025;-87
2024/01/25 03:58:53;;;;;;;0.20;0.20;;;;;;;9.38;56.70;101599.47;5016092;28;20025;-87
2024/01/25 04:01:19;;;;;;;0.20;0.20;;;;;;;9.34;57.28;101597.88;4999958;28;20059;-88
2024/01/25 04:03:44;;;;;;;0.20;0.20;;;;;;;9.25;57.56;101605.88;4999809;28;20032;-89
2024/01/25 04:06:10;;;;;;;0.20;0.20;;;;;;;9.08;57.83;101608.06;5016011;28;20033;-88
2024/01/25 04:08:35;;;;;;;0.20;0.20;;;;;;;8.98;57.95;101589.41;5016555;28;20032;-87
2024/01/25 04:11:01;;;;;;;0.20;0.20;;;;;;;8.97;58.03;101589.44;4999806;28;20025;-89
2024/01/25 04:13:26;;;;;;;0.20;0.20;;;;;;;8.89;58.18;101572.41;5000187;28;20127;-88
2024/01/25 04:15:52;;;;;;;0.20;0.20;;;;;;;8.86;57.56;101567.34;5000128;28;20029;-91
2024/01/25 04:18:17;;;;;;;0.20;0.20;;;;;;;8.86;57.70;101567.34;5034181;28;20021;-89
2024/01/25 04:20:43;;;;;;;0.20;0.20;;;;;;;8.90;57.69;101581.00;5000033;28;20025;-90
2024/01/25 04:23:09;;;;;;;0.20;0.20;;;;;;;8.82;57.49;101559.72;5000116;28;20033;-90
2024/01/25 04:25:34;;;;;;;0.20;0.20;;;;;;;8.95;57.35;101580.88;5033940;28;20041;-91
2024/01/25 04:28:00;;;;;;;0.13;0.13;;;;;;;9.01;57.35;101583.28;5000233;28;20041;-89
2024/01/25 04:30:26;;;;;;;0.20;0.20;;;;;;;8.96;57.35;101567.09;5003417;28;20037;-87
2024/01/25 04:32:54;;;;;;;0.20;0.20;;;;;;;9.02;56.96;101554.84;5034176;28;20143;-90
2024/01/25 04:35:19;;;;;;;0.10;0.10;;;;;;;9.15;56.33;101578.63;5035879;28;20060;-90
2024/01/25 04:37:45;;;;;;;0.20;0.20;;;;;;;9.09;56.83;101584.78;5021139;28;20029;-92
2024/01/25 04:40:11;;;;;;;0.20;0.20;;;;;;;9.19;56.17;101581.06;5000554;28;20091;-91
2024/01/25 04:42:37;;;;;;;0.20;0.20;;;;;;;9.34;55.89;101586.66;5035133;28;20033;-90
2024/01/25 04:45:03;;;;;;;0.20;0.20;;;;;;;9.37;55.27;101592.59;5020951;28;20036;-93
2024/01/25 04:47:28;;;;;;;0.20;0.20;;;;;;;9.43;55.12;101605.31;5026886;28;20025;-91
2024/01/25 04:49:54;;;;;;;0.20;0.20;;;;;;;9.54;55.15;101609.34;5045450;28;20050;-92
2024/01/25 04:52:19;;;;;;;0.20;0.20;;;;;;;9.44;55.40;101609.63;5026394;28;20005;-92
2024/01/25 04:54:45;;;;;;;0.20;0.20;;;;;;;9.44;55.33;101599.28;5045450;28;20025;-93
2024/01/25 04:57:10;;;;;;;0.20;0.20;;;;;;;9.37;55.37;101605.53;5046847;28;20037;-92
2024/01/25 04:59:36;;;;;;;0.20;0.20;;;;;;;9.39;55.33;101614.06;5040458;28;20022;-93
2024/01/25 05:02:01;;;;;;;0.20;0.20;;;;;;;9.45;55.18;101619.06;5021828;28;20033;-91
2024/01/25 05:04:29;;;;;;;0.20;0.20;;;;;;;9.44;55.44;101619.13;5038805;28;20416;-93
2024/01/25 05:06:55;;;;;;;0.20;0.20;;;;;;;9.32;55.52;101614.28;5024679;28;20034;-92
2024/01/25 05:09:21;;;;;;;0.20;0.20;;;;;;;9.27;55.37;101622.16;5019713;28;20061;-91
2024/01/25 05:11:46;;;;;;;0.20;0.20;;;;;;;9.29;55.44;101633.28;5035881;28;20029;-91
2024/01/25 05:14:12;;;;;;;0.20;0.20;;;;;;;9.19;55.47;101611.19;5021011;28;20091;-84
2024/01/25 05:16:37;;;;;;;0.20;0.20;;;;;;;9.14;55.83;101613.91;5031943;28;20033;-87
2024/01/25 05:19:03;;;;;;;0.20;0.20;;;;;;;9.06;56.42;101628.75;5015790;28;20025;-86
2024/01/25 05:21:30;;;;;;;0.20;0.20;;;;;;;9.10;56.12;101642.41;4999906;28;20100;-87
2024/01/25 05:23:56;;;;;;;0.10;0.10;;;;;;;9.18;55.93;101650.81;5019060;28;20034;-86
2024/01/25 05:26:21;;;;;;;0.20;0.20;;;;;;;9.16;55.56;101652.59;4999365;28;20040;-93
2024/01/25 05:28:47;;;;;;;0.20;0.20;;;;;;;9.13;55.68;101647.50;5016292;28;20025;-92
2024/01/25 05:31:12;;;;;;;0.20;0.20;;;;;;;9.13;55.97;101657.81;5034234;28;20037;-90
2024/01/25 05:33:39;;;;;;;0.20;0.20;;;;;;;9.16;55.92;101674.09;5030954;28;20041;-83
2024/01/25 05:36:05;;;;;;;0.20;0.20;;;;;;;9.03;56.03;101670.13;5034525;28;20025;-84
2024/01/25 05:38:32;;;;;;;0.20;0.20;;;;;;;8.95;56.12;101676.34;5031241;28;20112;-86
2024/01/25 05:40:57;;;;;;;0.20;0.20;;;;;;;9.05;55.57;101691.59;5025242;28;20049;-89
2024/01/25 05:43:23;;;;;;;0.20;0.20;;;;;;;8.88;55.81;101673.09;5008470;28;20503;-90
2024/01/25 05:45:49;;;;;;;0.20;0.20;;;;;;;8.76;56.05;101682.00;5025477;28;20042;-91
2024/01/25 05:48:15;;;;;;;0.20;0.20;;;;;;;8.87;55.98;101698.06;5010354;28;20044;-89
2024/01/25 05:50:40;;;;;;;0.20;0.20;;;;;;;8.86;55.32;101698.94;4999740;28;20033;-93
2024/01/25 05:53:06;;;;;;;0.20;0.20;;;;;;;8.93;55.45;101698.78;4989409;28;20040;-92
2024/01/25 05:55:31;;;;;;;0.20;0.20;;;;;;;8.95;55.12;101704.75;5036486;28;20622;-90
2024/01/25 05:57:57;;;;;;;0.20;0.20;;;;;;;8.89;55.27;101700.59;5020102;28;20021;-88
2024/01/25 06:00:23;;;;;;;0.20;0.20;;;;;;;9.01;54.64;101699.44;5015558;28;20033;-92
2024/01/25 06:02:48;;;;;;;0.20;0.20;;;;;;;8.97;55.12;101709.00;5005333;28;20022;-92
2024/01/25 06:05:14;;;;;;;0.20;0.20;;;;;;;9.02;55.06;101724.38;5010539;28;20072;-95
2024/01/25 06:07:40;;;;;;;0.20;0.20;;;;;;;8.81;54.80;101689.63;5002910;28;20163;-89
2024/01/25 06:10:06;;;;;;;0.20;0.20;;;;;;;9.05;54.88;101716.56;5027239;28;20112;-88
2024/01/25 06:12:32;;;;;;;0.20;0.20;;;;;;;9.07;54.84;101720.78;5012427;28;20558;-89
2024/01/25 06:14:57;;;;;;;0.20;0.20;;;;;;;8.88;54.43;101704.91;5027149;28;20129;-89
2024/01/25 06:17:23;;;;;;;0.20;0.20;;;;;;;9.06;54.47;101719.09;5036779;28;20029;-92
2024/01/25 06:19:48;;;;;;;0.20;0.20;;;;;;;9.15;54.40;101725.78;5013865;28;20045;-88
2024/01/25 06:22:14;;;;;;;0.20;0.20;;;;;;;9.07;54.43;101727.69;5028893;28;20033;-92
2024/01/25 06:24:40;;;;;;;0.20;0.20;;;;;;;9.11;54.38;101727.56;4996866;28;20040;-86
2024/01/25 06:27:05;;;;;;;0.20;0.20;;;;;;;9.19;54.40;101724.78;5030155;28;20494;-90
2024/01/25 06:29:31;;;;;;;0.20;0.20;;;;;;;9.05;54.47;101693.34;5030858;28;20518;-90
2024/01/25 06:31:56;;;;;;;0.20;0.20;;;;;;;9.17;54.65;101703.34;5036317;28;20030;-91
2024/01/25 06:34:22;;;;;;;0.20;0.20;;;;;;;9.07;54.29;101717.38;5030221;28;20029;-88
2024/01/25 06:36:47;;;;;;;0.20;0.20;;;;;;;9.15;54.98;101718.88;5030477;28;20033;-92
2024/01/25 06:39:13;;;;;;;0.20;0.20;;;;;;;9.14;54.10;101731.78;5023676;28;20034;-87
2024/01/25 06:41:38;;;;;;;0.20;0.20;;;;;;;9.22;53.87;101734.19;5030518;28;20021;-90
2024/01/25 06:44:04;;;;;;;0.20;0.20;;;;;;;9.28;53.83;101734.88;4982291;28;20047;-90
2024/01/25 06:46:29;;;;;;;0.20;0.20;;;;;;;9.15;53.83;101692.22;5012274;28;20108;-90
2024/01/25 06:48:55;;;;;;;0.20;0.20;;;;;;;9.37;53.55;101724.31;5015017;28;20044;-87
2024/01/25 06:51:20;;;;;;;0.20;0.20;;;;;;;9.40;53.26;101734.56;5020556;28;20072;-92
2024/01/25 06:53:46;;;;;;;0.20;0.20;;;;;;;9.29;53.64;101697.84;5011577;28;20053;-89
2024/01/25 06:56:12;;;;;;;0.20;0.20;;;;;;;9.31;53.83;101724.47;5012409;28;20103;-86
2024/01/25 06:58:37;;;;;;;0.20;0.20;;;;;;;9.43;53.51;101718.97;5006765;28;20534;-87
2024/01/25 07:01:04;;;;;;;0.20;0.20;;;;;;;9.57;53.70;101736.69;5028791;28;20033;-84
2024/01/25 07:03:30;;;;;;;0.20;0.20;;;;;;;9.55;53.61;101730.75;5011320;28;20029;-91
2024/01/25 07:05:55;;;;;;;0.20;0.20;;;;;;;9.60;53.18;101735.75;5030322;28;20106;-93
2024/01/25 07:08:21;;;;;;;0.20;0.20;;;;;;;9.65;53.47;101737.34;5002364;28;20037;-86
2024/01/25 07:10:47;;;;;;;0.20;0.20;;;;;;;9.64;53.63;101714.97;5005073;28;20029;-85
2024/01/25 07:13:12;;;;;;;0.20;0.20;;;;;;;9.75;53.60;101719.84;5005468;28;20052;-88
2024/01/25 07:15:38;;;;;;;0.20;0.20;;;;;;;9.68;54.02;101705.41;5000021;28;20448;-87
2024/01/25 07:18:04;;;;;;;0.20;0.20;;;;;;;9.71;54.11;101703.56;5033478;28;20033;-91
2024/01/25 07:20:29;;;;;;;0.20;0.20;;;;;;;9.79;53.98;101700.78;4995907;28;20030;-90
2024/01/25 07:22:56;;;;;;;0.20;0.20;;;;;;;9.83;54.69;101706.69;5032484;28;20136;-91
2024/01/25 07:25:21;;;;;;;0.20;0.20;;;;;;;9.76;55.25;101699.13;5037237;28;20005;-90
2024/01/25 07:27:47;;;;;;;0.20;0.20;;;;;;;9.74;55.09;101697.50;5022325;28;20415;-85
2024/01/25 07:30:13;;;;;;;0.20;0.20;;;;;;;9.80;54.11;101686.09;5000006;28;21314;-90
2024/01/25 07:32:41;;;;;;;0.20;0.20;;;;;;;9.72;54.62;101676.84;5015434;28;20033;-91
2024/01/25 07:35:07;;;;;;;0.20;0.20;;;;;;;9.77;54.88;101671.53;5027100;28;20068;-90
2024/01/25 07:37:33;;;;;;;0.20;0.20;;;;;;;9.90;52.77;101675.47;5034452;28;20067;-90
2024/01/25 07:39:58;;;;;;;0.20;0.20;;;;;;;10.36;52.65;101692.22;5038006;28;20080;-90
2024/01/25 07:42:24;;;;;;;0.20;0.20;;;;;;;10.39;53.53;101694.69;5034036;28;20025;-88
2024/01/25 07:44:49;;;;;;;0.20;0.20;;;;;;;10.70;51.95;101675.59;5016369;28;20044;-88
2024/01/25 07:47:15;;;;;;;0.20;0.20;;;;;;;10.67;50.88;101689.50;5017722;28;20025;-88
2024/01/25 07:49:41;;;;;;;0.20;0.20;;;;;;;10.61;50.42;101697.44;5013655;28;20056;-92
2024/01/25 07:52:06;;;;;;;0.20;0.20;;;;;;;10.63;50.08;101686.16;5014646;28;20052;-88
2024/01/25 07:54:32;;;;;;;0.20;0.20;;;;;;;10.67;49.67;101688.66;5033263;28;20491;-90
2024/01/25 07:56:57;;;;;;;0.20;0.20;;;;;;;10.52;50.35;101670.16;5032406;28;20545;-86
2024/01/25 07:59:23;;;;;;;0.20;0.20;;;;;;;10.65;50.58;101693.03;5019806;28;20549;-92
2024/01/25 08:01:49;;;;;;;0.20;0.20;;;;;;;10.72;50.15;101694.53;5030638;28;20025;-91
2024/01/25 08:04:14;;;;;;;0.20;0.20;;;;;;;10.80;50.40;101695.09;5029093;28;20052;-89
2024/01/25 08:06:40;;;;;;;0.20;0.20;;;;;;;10.50;49.94;101658.97;5021340;28;20037;-90
2024/01/25 08:09:05;;;;;;;0.20;0.20;;;;;;;10.76;49.71;101703.88;5020198;28;20029;-89
2024/01/25 08:11:31;;;;;;;0.20;0.20;;;;;;;10.62;49.70;101687.06;5025731;28;20033;-85
2024/01/25 08:13:57;;;;;;;0.20;0.20;;;;;;;10.87;49.40;101704.38;5002269;28;20040;-91
2024/01/25 08:16:22;;;;;;;0.20;0.20;;;;;;;10.84;50.19;101710.50;5001627;28;20044;-90
2024/01/25 08:18:48;;;;;;;0.10;0.10;;;;;;;10.77;50.49;101708.16;5021845;28;20029;-88
2024/01/25 08:21:14;;;;;;;0.20;0.20;;;;;;;10.78;50.51;101712.44;5008994;28;20040;-93
2024/01/25 08:23:39;;;;;;;0.20;0.20;;;;;;;10.98;49.73;101715.22;5010887;28;20035;-85
2024/01/25 08:26:09;;;;;;;0.20;0.20;;;;;;;11.01;49.44;101707.38;5017070;28;20036;-89
2024/01/25 08:28:36;;;;;;;0.20;0.20;;;;;;;11.07;49.78;101701.13;5023037;28;20021;-90
2024/01/25 08:31:01;;;;;;;0.20;0.20;;;;;;;11.24;48.75;101705.75;5030967;28;20025;-92
2024/01/25 08:33:27;;;;;;;0.20;0.20;;;;;;;11.31;49.95;101700.31;5021848;28;20040;-84
2024/01/25 08:35:53;;;;;;;0.20;0.20;;;;;;;11.46;48.69;101704.09;5032926;28;20037;-92
2024/01/25 08:38:19;;;;;;;0.20;0.20;;;;;;;11.49;47.79;101698.78;5036482;28;20074;-94
2024/01/25 08:40:44;;;;;;;0.20;0.20;;;;;;;11.57;47.51;101699.34;5007366;28;20049;-88
2024/01/25 08:43:10;;;;;;;0.20;0.20;;;;;;;11.66;48.19;101691.25;5013521;28;20031;-87
2024/01/25 08:45:36;;;;;;;0.20;0.20;;;;;;;11.72;46.59;101706.59;5003251;28;20131;-93
2024/01/25 08:48:02;;;;;;;0.20;0.20;;;;;;;11.76;46.63;101715.94;5031694;28;20052;-93
2024/01/25 08:50:28;;;;;;;0.10;0.10;;;;;;;11.72;47.10;101719.56;4992571;28;20579;-92
2024/01/25 08:52:54;;;;;;;0.20;0.20;;;;;;;11.83;47.90;101726.13;5025146;28;20424;-92
2024/01/25 08:55:19;;;;;;;0.20;0.20;;;;;;;11.90;47.54;101717.22;5019713;28;20061;-85
2024/01/25 08:57:45;;;;;;;0.20;0.20;;;;;;;11.91;47.32;101711.13;4996958;28;20025;-84
2024/01/25 09:00:10;;;;;;;0.20;0.20;;;;;;;11.90;47.42;101720.66;5013141;28;20030;-87
2024/01/25 09:02:37;;;;;;;0.20;0.20;;;;;;;11.95;47.35;101712.69;5031961;28;20030;-91
2024/01/25 09:05:04;;;;;;;0.20;0.20;;;;;;;12.10;49.23;101711.28;5020266;28;20095;-88
2024/01/25 09:07:29;;;;;;;0.20;0.20;;;;;;;12.09;47.43;101705.22;4994126;28;20051;-90
2024/01/25 09:09:55;;;;;;;0.20;0.20;;;;;;;12.06;46.67;101692.38;5031729;28;20491;-87
2024/01/25 09:12:20;;;;;;;0.20;0.20;;;;;;;12.13;47.01;101706.81;5015045;28;20475;-87
2024/01/25 09:14:46;;;;;;;0.20;0.20;;;;;;;12.10;47.66;101709.53;5019816;28;20033;-92
2024/01/25 09:17:13;;;;;;;0.20;0.20;;;;;;;12.19;48.14;101695.34;5033950;28;20434;-87
2024/01/25 09:19:39;;;;;;;0.20;0.20;;;;;;;12.30;47.86;101698.41;5001148;28;20064;-90
2024/01/25 09:22:07;;;;;;;0.20;0.20;;;;;;;12.16;47.13;101695.47;5021458;28;20057;-90
2024/01/25 09:24:35;;;;;;;0.20;0.20;;;;;;;12.06;48.05;101698.41;5033386;28;20033;-90
2024/01/25 09:27:02;;;;;;;0.20;0.20;;;;;;;12.04;48.37;101663.91;5016930;28;20582;-86
2024/01/25 09:29:28;;;;;;;0.20;0.20;;;;;;;12.14;48.06;101674.78;5017955;28;20029;-89
2024/01/25 09:31:54;;;;;;;0.20;0.20;;;;;;;12.29;47.74;101683.72;5032599;28;20032;-92
2024/01/25 09:34:19;;;;;;;0.20;0.20;;;;;;;12.20;47.81;101682.34;4996406;28;20034;-89
2024/01/25 09:36:45;;;;;;;0.20;0.20;;;;;;;12.20;48.35;101679.75;4999613;28;20071;-90
2024/01/25 09:39:11;;;;;;;0.20;0.20;;;;;;;12.06;48.65;101653.47;5002435;28;20033;-86
2024/01/25 09:41:36;;;;;;;0.20;0.20;;;;;;;12.18;48.18;101671.16;5010578;28;20080;-87
2024/01/25 09:44:03;;;;;;;0.20;0.20;;;;;;;12.24;48.62;101683.06;5009808;28;20036;-91
2024/01/25 09:46:28;;;;;;;0.20;0.20;;;;;;;12.11;48.52;101664.53;5021091;28;20025;-90
2024/01/25 09:48:54;;;;;;;0.20;0.20;;;;;;;12.22;48.13;101664.97;4967812;28;1659304;-90
2024/01/25 09:51:19;;;;;;;0.20;0.20;;;;;;;12.22;48.43;101679.69;5000506;28;20104;-88
2024/01/25 09:53:45;;;;;;;0.20;0.20;;;;;;;12.11;48.92;101667.13;4993424;28;20041;-86
2024/01/25 09:56:12;;;;;;;0.20;0.20;;;;;;;12.09;48.51;101661.13;5000404;28;20029;-90
2024/01/25 09:58:43;;;;;;;0.20;0.20;;;;;;;12.25;48.22;101676.97;5013352;28;20041;-91
2024/01/25 10:01:10;;;;;;;0.20;0.20;;;;;;;12.29;48.76;101666.41;5021613;28;20037;-90
2024/01/25 10:03:36;;;;;;;0.20;0.20;;;;;;;12.42;48.55;101671.13;5000810;28;20041;-88
2024/01/25 10:06:03;;;;;;;0.20;0.20;;;;;;;12.29;47.96;101671.63;5015348;28;20029;-92
2024/01/25 10:08:28;;;;;;;0.20;0.20;;;;;;;12.43;47.50;101672.81;5031120;28;20026;-92
2024/01/25 10:10:54;;;;;;;0.20;0.20;;;;;;;12.29;46.84;101678.50;5004694;28;20160;-91
2024/01/25 10:13:19;;;;;;;0.20;0.20;;;;;;;12.16;46.21;101664.34;5011725;28;20553;-85
2024/01/25 10:15:47;;;;;;;0.20;0.20;;;;;;;12.08;46.54;101667.22;5000861;28;20033;-84
2024/01/25 10:18:13;;;;;;;0.20;0.20;;;;;;;11.88;46.65;101647.25;5012354;28;20124;-83
2024/01/25 10:20:42;;;;;;;0.20;0.20;;;;;;;11.97;46.27;101685.78;5029338;28;20069;-87
2024/01/25 10:23:07;;;;;;;0.20;0.20;;;;;;;12.04;46.91;101669.09;5012628;28;20040;-83
2024/01/25 10:25:37;;;;;;;0.20;0.20;;;;;;;11.92;46.99;101659.22;5006893;28;20033;-84
2024/01/25 10:28:06;;;;;;;0.20;0.20;;;;;;;12.09;46.63;101662.88;5001880;28;20408;-85
2024/01/25 10:30:33;;;;;;;0.20;0.20;;;;;;;11.78;47.57;101641.53;5013148;28;20083;-88
2024/01/25 10:32:58;;;;;;;0.20;0.20;;;;;;;11.90;47.69;101667.97;5020705;28;20055;-85
2024/01/25 10:35:25;;;;;;;0.20;0.20;;;;;;;11.92;47.22;101660.97;5013780;28;20045;-88
2024/01/25 10:37:51;;;;;;;0.20;0.20;;;;;;;11.91;47.30;101646.31;5016880;28;20100;-85
2024/01/25 10:40:18;;;;;;;0.20;0.20;;;;;;;11.83;47.79;101653.53;5011643;28;20041;-88
2024/01/25 10:42:43;;;;;;;0.20;0.20;;;;;;;11.85;47.48;101641.34;5006135;28;20368;-87
2024/01/25 10:45:09;;;;;;;0.20;0.20;;;;;;;11.69;47.45;101595.22;5017743;28;20548;-87
2024/01/25 10:47:35;;;;;;;0.20;0.20;;;;;;;11.77;47.58;101615.66;5011513;28;20523;-87
2024/01/25 10:50:02;;;;;;;0.20;0.20;;;;;;;11.64;47.96;101599.75;5029600;28;20045;-91
2024/01/25 10:52:28;;;;;;;0.20;0.20;;;;;;;11.82;47.55;101620.72;5122121;22;20066;-91
2024/01/25 10:54:54;;;;;;;0.20;0.20;;;;;;;11.73;47.82;101594.22;4993572;28;20021;-91
2024/01/25 10:57:19;;;;;;;0.20;0.20;;;;;;;11.83;47.45;101609.44;5009605;28;20068;-84
2024/01/25 10:59:45;;;;;;;0.20;0.20;;;;;;;11.79;47.46;101595.72;5015696;28;20037;-91
2024/01/25 11:02:10;;;;;;;0.20;0.20;;;;;;;11.82;47.54;101585.28;4997828;28;20029;-91
2024/01/25 11:04:36;;;;;;;0.20;0.20;;;;;;;11.93;48.07;101593.47;5012389;28;20491;-84
2024/01/25 11:07:11;;;;;;;0.20;0.20;;;;;;;11.81;47.99;101573.22;5012894;28;20474;-86
2024/01/25 11:09:37;;;;;;;0.20;0.20;;;;;;;11.91;47.20;101579.72;5010429;28;20038;-90
2024/01/25 11:12:11;;;;;;;0.20;0.20;;;;;;;11.69;47.49;101582.25;5010922;28;20451;-86
2024/01/25 11:14:37;;;;;;;0.20;0.20;;;;;;;11.70;48.01;101565.84;5008384;28;20034;-90
2024/01/25 11:17:15;;;;;;;0.20;0.20;;;;;;;11.80;47.48;101544.72;5009325;28;20061;-91
2024/01/25 11:19:41;;;;;;;0.20;0.20;;;;;;;11.80;47.20;101529.19;4998116;28;20033;-92
2024/01/25 11:22:06;;;;;;;0.20;0.20;;;;;;;11.85;46.69;101530.69;5017259;28;20026;-88